Duane, New York
Current Conditions -  °F | °C
As of 3:21 PM on Thursday 23 Oct 2014 (Local Time) from KSLK Reporting Station
Light Rain Light Rain  
Wind Chill: 37°   Ceiling: 800
Heat Index: 42°   Visibility: 3mi
Dew Point: 40°   Wind: 8mph
Humidity: 92%   Direction: 10°N
Pressure: 29.91"   Gusts: NA
Location:  44.7347°N, 74.2672°W
Report Text: KSLK 231921Z AUTO 01007KT 3SM -RA BR BKN008 OVC013 06/04 A2991 RMK AO2 RAB16 P0000 T00560044
Loading
Personal Weather Stations






























Interactive Weather Map
Tropical Storm Tracking
New forecast layout! Learn more

10-Day Weather Forecast

Advertisements
Track Severe Weather on mobile